Station: Ballina  

  Atmospheric Gas Attenuation - ITU Rec 676-11   ----------------- dB/100km -----------------
Date Time Temp RH % AH g/m3 Dew Point Wind Direction Speed kph Gust kph Barometer mB Rainfall Since 9am 24GHz 47GHz 76GHz 122GHz 134GHz 241GHz
08/05 12:30 18.5 29 4.59 0.2 13 19 1018.4 0 10.9 19.1 23.7 61.5 46.8 157.9
08/05 12:20 18.3 31 4.85 0.9 9 13 1018.6 0 11.5 19.5 24.6 63.9 49.7 168.1
08/05 12:10 18.2 30 4.66 0.4 11 13 1018.9 0 11.1 19.2 24.1 62.3 47.7 161.2
08/05 12:00 18.2 33 5.13 1.7 9 20 1019.1 0 12.1 19.9 25.6 66.5 52.8 179.1
08/05 11:50 18.1 32 4.94 1.2 15 19 1019.2 0 11.7 19.6 25.0 64.9 50.8 172.0
08/05 11:40 17.7 32 4.83 0.8 13 13 1019.4 0 11.5 19.6 24.8 64.2 49.9 168.7
08/05 11:30 17.4 29 4.3 -0.8 13 19 1019.6 0 10.4 19.0 23.1 59.9 44.4 149.2
08/05 11:20 17.3 31 4.57 0 9 13 1019.7 0 10.9 19.3 24.0 62.3 47.3 159.6
08/05 11:10 16.8 31 4.43 -0.4 11 13 1020 0 10.7 19.3 23.7 61.5 46.1 155.3
08/05 11:00 16.9 29 4.17 -1.2 15 22 1020.2 0 10.1 18.9 22.9 59.1 43.3 145.2
08/05 10:50 16.8 32 4.57 0 11 13 1020.4 0 10.9 19.5 24.2 62.7 47.6 160.7
08/05 10:40 16.6 28 3.96 -2 9 11 1020.6 0 9.7 18.7 22.3 57.6 41.2 137.9
08/05 10:30 16.5 30 4.21 -1.1 15 22 1020.7 0 10.2 19.1 23.1 59.8 43.9 147.5
08/05 10:20 16.3 30 4.16 -1.3 15 17 1020.8 0 10.1 19.0 23.0 59.5 43.5 146.0
08/05 10:10 16 31 4.22 -1.1 15 19 1020.8 0 10.2 19.2 23.3 60.3 44.3 148.8
08/05 10:00 16.2 31 4.27 -0.9 15 20 1020.9 0 10.3 19.2 23.4 60.6 44.7 150.4
08/05 09:50 15.9 30 4.06 -1.6 15 19 1020.9 0 9.9 19.0 22.8 59.0 42.6 142.9
08/05 09:40 15.4 29 3.81 -2.5 15 19 1020.9 0 9.4 18.7 22.1 57.1 40.2 134.3
08/05 09:30 15.6 33 4.39 -0.6 13 24 1020.9 0 10.6 19.5 24.0 62.1 46.4 156.1
08/05 09:20 15.7 37 4.95 1.1 13 15 1020.8 0 11.8 20.2 25.8 67.0 52.5 177.8
08/05 09:10 15.2 33 4.28 -0.9 17 19 1020.8 0 10.4 19.4 23.7 61.4 45.4 152.6
08/05 09:00 14.8 34 4.31 -0.9 15 22 1020.8 0 10.5 19.5 23.9 62.0 46.0 154.5
08/05 08:50 14.6 36 4.5 -0.3 13 13 1021 0 10.9 19.8 24.6 63.8 48.2 162.3
08/05 08:40 14.5 38 4.73 0.4 19 20 1020.9 0 11.4 20.2 25.5 66.0 50.8 171.6
08/05 08:30 14 39 4.7 0.3 13 20 1020.9 0 11.3 20.2 25.5 66.1 50.8 171.4
08/05 08:20 13.6 39 4.59 -0.1 19 20 1020.8 0 11.1 20.2 25.2 65.4 49.8 167.9
08/05 08:10 13.2 39 4.48 -0.4 15 17 1020.8 0 10.9 20.1 25.0 64.7 48.8 164.3
08/05 08:00 12.9 44 4.96 1 15 20 1020.8 0 11.9 20.9 26.8 69.5 54.5 184.3
08/05 07:50 12.5 46 5.06 1.2 15 17 1020.7 0 12.1 21.1 27.2 70.7 56.0 189.4
08/05 07:40 12.1 46 4.93 0.8 17 19 1020.6 0 11.9 21.0 26.9 69.8 54.7 184.9
08/05 07:30 11.7 46 4.81 0.5 17 20 1020.7 0 11.6 20.9 26.6 69.1 53.6 180.8
08/05 07:20 11 51 5.11 1.3 17 19 1020.5 0 12.3 21.5 27.9 72.5 57.6 195.0
08/05 07:10 10.5 52 5.04 1.1 11 13 1020.5 0 12.1 21.5 27.8 72.3 57.1 193.2
08/05 07:00 10 55 5.17 1.4 11 19 1020.5 0 12.4 21.8 28.5 74.0 59.1 200.0
08/05 06:50 9.9 51 4.76 0.3 17 19 1020 0 11.6 21.2 27.0 70.1 54.1 182.7
08/05 06:40 8.8 58 5.05 1 9 11 1020.3 0 12.2 21.9 28.4 73.9 58.5 197.7
08/05 06:30 8.8 56 4.88 0.5 15 20 1020 0 11.9 21.7 27.8 72.2 56.4 190.3
08/05 06:20 8.8 56 4.88 0.5 9 11 1020.1 0 11.9 21.7 27.8 72.2 56.4 190.3
08/05 06:10 9.1 53 4.7 0 15 15 1020 0 11.5 21.3 27.0 70.2 54.0 181.9
08/05 06:00 9.5 50 4.55 -0.4 13 17 1019.9 0 11.1 21.0 26.4 68.4 51.9 174.7
08/05 05:50 9.3 53 4.76 0.2 15 17 1019.6 0 11.6 21.3 27.2 70.6 54.5 184.0
08/05 05:40 10 49 4.61 -0.2 11 13 1019.6 0 11.2 21.0 26.4 68.5 52.3 176.1
08/05 05:30 10.3 47 4.5 -0.5 13 20 1019.3 0 11.0 20.7 25.9 67.2 50.8 170.8
08/05 05:20 10.5 46 4.46 -0.6 13 19 1019.4 0 10.9 20.6 25.7 66.6 50.2 168.8
08/05 05:10 11.4 41 4.21 -1.4 19 20 1019 0 10.3 20.1 24.5 63.5 46.7 156.7
08/05 05:00 11.4 41 4.21 -1.4 19 26 1019.1 0 10.3 20.1 24.5 63.5 46.7 156.7
08/05 04:50 11.2 42 4.26 -1.2 20 26 1019 0 10.5 20.2 24.8 64.2 47.4 159.1
08/05 04:40 11.3 43 4.39 -0.8 15 20 1019 0 10.7 20.3 25.2 65.3 48.8 164.2
08/05 04:30 11.2 44 4.46 -0.6 19 24 1018.9 0 10.9 20.5 25.5 66.0 49.7 167.2
08/05 04:20 11.5 42 4.34 -0.9 20 22 1018.8 0 10.6 20.2 25.0 64.6 48.1 161.7
08/05 04:10 11.7 42 4.39 -0.8 19 22 1018.8 0 10.7 20.2 25.1 65.0 48.6 163.4
08/05 04:00 11.8 42 4.42 -0.7 17 24 1018.5 0 10.8 20.3 25.1 65.1 48.9 164.3
08/05 03:50 12 38 4.05 -1.9 13 17 1018.7 0 10.0 19.7 23.8 61.6 44.5 149.1
08/05 03:40 12 40 4.26 -1.2 19 22 1018.3 0 10.4 20.0 24.5 63.5 46.9 157.5
08/05 03:30 12.3 35 3.8 -2.7 15 24 1018.5 0 9.5 19.3 22.9 59.1 41.6 138.7
08/05 03:20 12.4 36 3.93 -2.2 13 15 1018.3 0 9.7 19.4 23.3 60.2 42.9 143.6
08/05 03:10 12 37 3.94 -2.2 11 15 1018.3 0 9.8 19.5 23.4 60.5 43.3 144.7
08/05 03:00 12.3 37 4.02 -2 13 20 1018.3 0 9.9 19.6 23.6 61.0 44.0 147.3
08/05 02:50 11.8 41 4.32 -1 4 6 1018.3 0 10.6 20.1 24.8 64.2 47.7 160.3
08/05 02:40 12 43 4.58 -0.2 13 17 1018.1 0 11.1 20.4 25.6 66.4 50.6 170.4
08/05 02:30 11.3 45 4.59 -0.2 13 19 1018.3 0 11.2 20.6 25.9 67.1 51.1 172.3
08/05 02:20 12.4 41 4.48 -0.5 13 15 1018.2 0 10.9 20.2 25.1 65.2 49.2 165.5
08/05 02:10 12.9 39 4.4 -0.7 19 22 1018.1 0 10.7 20.0 24.7 64.0 47.9 161.3
08/05 02:00 12.9 39 4.4 -0.7 17 26 1018.2 0 10.7 20.0 24.7 64.0 48.0 161.3
08/05 01:50 13.1 40 4.56 -0.2 19 22 1018.1 0 11.0 20.2 25.2 65.4 49.6 167.3
08/05 01:40 13.3 47 5.43 2.2 15 19 1018.2 0 12.9 21.3 28.2 73.4 59.6 202.3
08/05 01:30 12.9 50 5.64 2.7 17 22 1018 0 13.3 21.7 29.1 75.7 62.4 212.1
08/05 01:20 13.1 49 5.59 2.6 17 22 1018 0 13.2 21.6 28.8 75.1 61.6 209.4
08/05 01:10 13.6 53 6.24 4.2 19 20 1018 0 14.6 22.5 31.0 80.9 69.0 235.5
08/05 01:00 13.5 55 6.43 4.6 15 19 1018 0 15.0 22.8 31.7 82.9 71.4 243.9
08/05 00:50 13.7 54 6.39 4.6 13 15 1018 0 14.9 22.7 31.5 82.3 70.8 241.6
08/05 00:40 13.5 58 6.78 5.4 15 17 1017.9 0 15.7 23.3 33.1 86.4 75.8 259.1
08/05 00:20 14.3 55 6.76 5.4 13 19 1018.1 0 15.6 23.1 32.7 85.3 74.8 255.7
08/05 00:10 14.7 55 6.92 5.8 17 19 1018 0 16.0 23.2 33.1 86.5 76.3 261.2
08/05 00:00 15.1 52 6.71 5.3 17 22 1018 0 15.5 22.8 32.2 84.0 73.4 251.0
07/05 23:50 15.4 53 6.96 5.9 19 22 1018.2 0 16.0 23.1 33.0 86.1 76.2 260.7
07/05 23:40 15.4 54 7.09 6.1 17 20 1018 0 16.3 23.3 33.4 87.4 77.7 266.3
07/05 23:30 15.3 56 7.31 6.6 15 20 1018 0 16.8 23.6 34.3 89.7 80.6 276.1
07/05 23:20 15.5 55 7.27 6.5 15 17 1017.8 0 16.7 23.5 34.1 89.1 79.8 273.6
07/05 23:10 15.2 55 7.14 6.2 11 15 1017.7 0 16.4 23.4 33.7 88.1 78.5 269.0
07/05 23:00 15.7 54 7.22 6.4 13 17 1017.9 0 16.6 23.4 33.8 88.4 79.0 270.8
07/05 22:50 15.8 53 7.13 6.3 15 17 1017.6 0 16.4 23.2 33.4 87.3 77.8 266.6
07/05 22:40 15.8 55 7.4 6.8 17 19 1017.6 0 16.9 23.6 34.4 90.0 81.1 278.2
07/05 22:30 14.7 62 7.81 7.5 15 19 1017.5 0 17.9 24.5 36.4 95.4 87.4 300.1
07/05 22:20 15.1 58 7.48 6.9 11 13 1017.5 0 17.1 23.9 35.0 91.6 82.8 284.1
07/05 22:10 15.6 53 7.05 6.1 15 17 1017.4 0 16.2 23.1 33.2 86.7 77.0 263.8
07/05 22:00 16.1 52 7.13 6.3 15 19 1017.2 0 16.4 23.1 33.3 87.0 77.5 265.5
07/05 21:50 16.1 50 6.85 5.7 17 19 1017.3 0 15.8 22.7 32.2 84.2 74.1 253.6
07/05 21:40 16.8 49 7.01 6 17 20 1017.1 0 16.1 22.8 32.5 85.0 75.4 258.1
07/05 21:30 17 49 7.09 6.2 22 32 1016.9 0 16.2 22.8 32.7 85.6 76.1 260.8
07/05 21:20 17.6 45 6.75 5.5 24 26 1016.7 0 15.5 22.2 31.3 81.7 71.5 244.7
07/05 21:10 17.7 45 6.79 5.6 19 22 1016.5 0 15.6 22.2 31.4 81.9 71.9 246.0
07/05 21:00 17.3 47 6.92 5.9 22 32 1016.2 0 15.9 22.5 32.0 83.6 73.8 252.6
07/05 20:50 18 44 6.76 5.6 20 24 1016.1 0 15.5 22.1 31.1 81.3 71.2 243.8
07/05 20:40 17.5 47 7.01 6.1 22 26 1015.7 0 16.0 22.6 32.2 84.2 74.6 255.6
07/05 20:30 16.6 51 7.2 6.4 17 20 1015.7 0 16.5 23.1 33.3 87.0 77.8 266.5
07/05 20:20 16.7 52 7.39 6.8 17 19 1015.5 0 16.9 23.3 33.9 88.7 79.9 274.2
07/05 20:10 17.6 50 7.5 7.1 19 22 1015.3 0 17.1 23.2 33.9 88.8 80.3 275.7
07/05 20:00 18.5 45 7.12 6.4 19 24 1015.1 0 16.2 22.4 32.2 84.1 74.9 256.8
07/05 19:50 18.7 46 7.36 6.9 20 22 1014.9 0 16.7 22.7 33.0 86.2 77.6 266.1

Last Refresh: 08-May-2026 12:07:31

Bureau of Meteorology